< Typhoon 195403 1954 Season Typhoon 195405 >
Typhoon 195404 (FLOSSIE)
General InformationTrack Information on Google Maps || NewsDisaster Info.ResourceGoogle EarthGE AnimationAtom FeedGeoJSON
Detalied Best Track (Time Zone = UTC)
Year Month Day Hour Lat. Long. Pressure (hPa) Wind (kt) Class Image Chart
1954 7 5 12 7.0 144.0 1006 0 2 -- Chart
1954 7 5 18 8.0 141.0 1006 0 2 -- Chart
1954 7 6 00 8.8 139.2 1006 0 2 -- Chart
1954 7 6 06 9.6 137.8 1000 0 2 -- Chart
1954 7 6 12 10.5 137.6 1000 0 2 -- Chart
1954 7 6 18 11.6 137.4 998 0 2 -- Chart
1954 7 7 00 13.0 136.5 990 0 9 -- Chart
1954 7 7 06 13.5 135.7 985 0 9 -- Chart
1954 7 7 12 14.3 134.3 985 0 9 -- Chart
1954 7 7 18 15.1 133.1 985 0 9 -- Chart
1954 7 8 00 16.2 131.7 990 0 9 -- Chart
1954 7 8 06 16.8 130.7 995 0 9 -- Chart
1954 7 8 12 17.6 129.7 995 0 9 -- Chart
1954 7 8 18 18.6 128.8 995 0 9 -- Chart
1954 7 9 00 19.4 127.7 995 0 9 -- Chart
1954 7 9 06 20.2 126.0 995 0 9 -- Chart
1954 7 9 12 21.2 125.2 1000 0 9 -- Chart
1954 7 9 18 22.7 125.3 1000 0 9 -- Chart
1954 7 10 00 24.0 125.8 1000 0 9 -- Chart
1954 7 10 06 27.0 126.2 1000 0 2 -- Chart
1954 7 10 12 28.2 127.2 1000 0 2 -- Chart
1954 7 10 18 29.0 129.0 1000 0 2 -- Chart
1954 7 11 00 29.3 131.2 1002 0 2 -- Chart
Japan Meteorological Agency Best Track Data | Correction Date : 1989-06-01
< Typhoon 195403 1954 Season Typhoon 195405 >

Help